createdAt,value
2023-03-03T00:01:53.180Z,27.67
2023-03-03T00:04:22.401Z,28.60
2023-03-03T00:06:51.274Z,27.33
2023-03-03T00:09:20.514Z,28.23
2023-03-03T00:11:55.323Z,28.37
2023-03-03T00:14:30.086Z,28.13
2023-03-03T00:17:02.300Z,28.37
2023-03-03T00:19:41.126Z,27.63
2023-03-03T00:22:18.201Z,26.60
2023-03-03T00:24:48.860Z,28.00
2023-03-03T00:27:24.933Z,27.60
2023-03-03T00:29:57.175Z,28.30
2023-03-03T00:32:28.415Z,27.87
2023-03-03T00:35:03.789Z,28.07
2023-03-03T00:37:35.512Z,27.60
2023-03-03T00:40:23.915Z,27.87
2023-03-03T00:42:55.223Z,27.97
2023-03-03T00:45:29.767Z,26.90
2023-03-03T00:48:00.862Z,28.53
2023-03-03T00:50:33.534Z,26.20
2023-03-03T00:53:05.680Z,26.77
2023-03-03T00:55:35.955Z,28.23
2023-03-03T00:58:05.651Z,29.00
2023-03-03T01:00:41.200Z,27.53
2023-03-03T01:03:16.123Z,28.23
2023-03-03T01:05:45.844Z,29.03
2023-03-03T01:08:14.825Z,26.43
2023-03-03T01:10:51.012Z,28.70
2023-03-03T01:13:21.222Z,29.60
2023-03-03T01:15:52.286Z,28.43
2023-03-03T01:18:21.569Z,27.10
2023-03-03T01:20:50.686Z,27.30
2023-03-03T01:23:19.928Z,26.80
2023-03-03T01:25:49.078Z,26.03
2023-03-03T01:28:18.775Z,27.67
2023-03-03T01:30:48.225Z,28.47
2023-03-03T01:33:18.768Z,28.73
2023-03-03T01:35:48.766Z,28.33
2023-03-03T01:38:17.813Z,28.80
2023-03-03T01:40:54.201Z,29.23
2023-03-03T01:43:24.047Z,29.93
2023-03-03T01:46:28.800Z,30.57
2023-03-03T01:49:03.329Z,30.13
2023-03-03T01:51:35.309Z,31.73
2023-03-03T01:54:07.621Z,32.03
2023-03-03T01:56:36.928Z,32.40
2023-03-03T01:59:10.279Z,34.03
2023-03-03T02:01:39.932Z,32.30
2023-03-03T02:04:11.074Z,33.37
2023-03-03T02:06:43.573Z,34.40
2023-03-03T02:09:19.379Z,31.03
2023-03-03T02:11:51.843Z,30.57
2023-03-03T02:14:21.047Z,30.60
2023-03-03T02:16:50.278Z,30.83
2023-03-03T02:19:28.890Z,34.20
2023-03-03T02:21:58.336Z,34.47
2023-03-03T02:24:33.222Z,34.03
2023-03-03T02:27:03.485Z,35.57
2023-03-03T02:29:32.787Z,36.93
2023-03-03T02:32:02.327Z,37.70
2023-03-03T02:34:31.577Z,35.00
2023-03-03T02:37:00.853Z,35.77
2023-03-03T02:39:30.773Z,37.57
2023-03-03T02:42:05.892Z,35.43
2023-03-03T02:44:42.730Z,38.73
2023-03-03T02:47:11.698Z,37.53
2023-03-03T02:49:42.876Z,39.57
2023-03-03T02:52:12.712Z,36.27
2023-03-03T02:54:43.863Z,38.77
2023-03-03T02:57:14.255Z,38.07
2023-03-03T02:59:43.065Z,38.13
2023-03-03T03:02:15.399Z,41.73
2023-03-03T03:04:44.561Z,41.03
2023-03-03T03:07:18.122Z,39.57
2023-03-03T03:09:47.822Z,43.30
2023-03-03T03:12:19.374Z,41.77
2023-03-03T03:14:50.329Z,43.03
2023-03-03T03:17:19.106Z,42.27
2023-03-03T03:19:48.829Z,40.07
2023-03-03T03:22:19.581Z,41.10
2023-03-03T03:24:48.680Z,43.30
2023-03-03T03:27:20.365Z,37.77
2023-03-03T03:29:50.652Z,41.70
2023-03-03T03:32:20.487Z,39.73
2023-03-03T03:34:49.902Z,40.17
2023-03-03T03:37:18.971Z,40.43
2023-03-03T03:39:49.008Z,43.63
2023-03-03T03:42:21.309Z,40.00
2023-03-03T03:44:51.129Z,41.57
2023-03-03T03:47:20.226Z,43.20
2023-03-03T03:49:49.225Z,42.10
2023-03-03T03:52:18.572Z,41.10
2023-03-03T03:54:47.731Z,40.70
2023-03-03T03:57:17.148Z,42.50
2023-03-03T03:59:48.426Z,37.50
2023-03-03T04:02:17.799Z,43.37
2023-03-03T04:04:47.027Z,41.90
2023-03-03T04:07:15.831Z,39.83
2023-03-03T04:09:44.861Z,43.17
2023-03-03T04:12:14.823Z,41.50
2023-03-03T04:14:43.917Z,42.23
2023-03-03T04:17:17.673Z,40.13
2023-03-03T04:19:47.392Z,39.63
2023-03-03T04:22:16.671Z,42.20
2023-03-03T04:24:48.644Z,42.80
2023-03-03T04:27:19.092Z,40.17
2023-03-03T04:29:48.577Z,41.73
2023-03-03T04:32:19.637Z,43.57
2023-03-03T04:34:58.764Z,40.57
2023-03-03T04:37:35.721Z,43.47
2023-03-03T04:40:07.509Z,41.37
2023-03-03T04:42:37.256Z,40.93
2023-03-03T04:45:08.744Z,41.93
2023-03-03T04:47:39.342Z,40.00
2023-03-03T04:50:10.265Z,42.13
2023-03-03T04:52:39.992Z,42.70
2023-03-03T04:55:11.353Z,40.83
2023-03-03T04:57:41.993Z,41.10
2023-03-03T05:00:13.164Z,42.37
2023-03-03T05:02:44.177Z,40.83
2023-03-03T05:05:15.277Z,43.27
2023-03-03T05:07:45.130Z,41.53
2023-03-03T05:10:14.133Z,39.47
2023-03-03T05:12:43.552Z,42.27
2023-03-03T05:15:12.855Z,41.40
2023-03-03T05:17:43.540Z,39.30
2023-03-03T05:20:14.421Z,42.73
2023-03-03T05:22:43.765Z,42.53
2023-03-03T05:25:13.339Z,43.17
2023-03-03T05:27:42.769Z,44.23
2023-03-03T05:30:13.405Z,42.63
2023-03-03T05:32:43.793Z,43.20
2023-03-03T05:35:12.742Z,43.20
2023-03-03T05:37:47.142Z,41.23
2023-03-03T05:40:16.540Z,46.97
2023-03-03T05:42:45.902Z,44.47
2023-03-03T05:45:15.069Z,42.63
2023-03-03T05:47:45.725Z,46.43
2023-03-03T05:50:15.379Z,43.27
2023-03-03T05:52:44.397Z,42.73
2023-03-03T05:55:13.716Z,44.03
2023-03-03T05:57:43.231Z,44.10
2023-03-03T06:00:14.319Z,46.10
2023-03-03T06:02:45.301Z,44.73
2023-03-03T06:05:14.313Z,42.57
2023-03-03T06:07:43.388Z,43.57
2023-03-03T06:10:13.648Z,44.33
2023-03-03T06:12:44.324Z,45.53
2023-03-03T06:15:13.840Z,44.87
2023-03-03T06:17:45.116Z,46.07
2023-03-03T06:20:14.421Z,44.43
2023-03-03T06:22:43.891Z,42.67
2023-03-03T06:25:13.077Z,44.50
2023-03-03T06:27:42.589Z,43.13
2023-03-03T06:30:14.041Z,45.43
2023-03-03T06:32:50.942Z,43.57
2023-03-03T06:35:20.409Z,45.80
2023-03-03T06:37:50.932Z,51.47
2023-03-03T06:40:20.732Z,48.57
2023-03-03T06:42:50.239Z,41.93
2023-03-03T06:45:21.272Z,35.47
2023-03-03T06:47:51.844Z,35.70
2023-03-03T06:50:22.327Z,37.23
2023-03-03T06:53:00.544Z,35.17
2023-03-03T06:55:30.475Z,35.20
2023-03-03T06:58:01.126Z,31.47
2023-03-03T07:00:32.309Z,33.83
2023-03-03T07:03:09.156Z,33.53
2023-03-03T07:05:38.308Z,30.57
2023-03-03T07:08:14.512Z,30.83
2023-03-03T07:10:44.349Z,31.77
2023-03-03T07:13:23.080Z,31.50
2023-03-03T07:15:54.268Z,30.87
2023-03-03T07:18:36.492Z,30.27
2023-03-03T07:21:20.066Z,30.30
2023-03-03T07:23:51.877Z,30.33
2023-03-03T07:26:24.903Z,29.47
2023-03-03T07:28:57.867Z,27.77
2023-03-03T07:31:36.676Z,28.97
2023-03-03T07:34:21.006Z,28.80
2023-03-03T07:36:51.473Z,28.50
2023-03-03T07:39:30.219Z,28.63
2023-03-03T07:42:15.997Z,28.43
2023-03-03T07:44:46.884Z,27.40
2023-03-03T07:47:25.577Z,29.23
2023-03-03T07:49:58.587Z,28.70
2023-03-03T07:52:40.063Z,28.00
2023-03-03T07:55:28.181Z,28.17
2023-03-03T07:58:21.631Z,27.83
2023-03-03T08:01:29.313Z,27.07
2023-03-03T08:03:59.268Z,27.10
2023-03-03T08:06:38.343Z,26.10
2023-03-03T08:09:41.085Z,24.83
2023-03-03T08:12:29.980Z,25.07
2023-03-03T08:15:12.240Z,25.00
2023-03-03T08:17:46.084Z,25.77
2023-03-03T08:20:50.876Z,25.40
2023-03-03T08:23:22.654Z,25.33
2023-03-03T08:25:53.321Z,25.73
2023-03-03T08:28:23.376Z,25.70
2023-03-03T08:31:02.657Z,25.13
2023-03-03T08:33:38.601Z,25.07
2023-03-03T08:36:08.840Z,24.40
2023-03-03T08:38:39.835Z,23.90
2023-03-03T08:41:09.250Z,24.73
2023-03-03T08:43:38.492Z,23.40
2023-03-03T08:46:10.343Z,22.37
2023-03-03T08:48:39.856Z,22.53
2023-03-03T08:51:09.360Z,21.63
2023-03-03T08:53:40.391Z,22.23
2023-03-03T08:56:10.588Z,22.47
2023-03-03T08:58:49.830Z,21.33
2023-03-03T09:01:28.925Z,22.43
2023-03-03T09:03:57.965Z,21.20
2023-03-03T09:06:27.162Z,22.73
2023-03-03T09:08:57.949Z,22.57
2023-03-03T09:11:29.834Z,22.30
2023-03-03T09:14:07.747Z,22.37
2023-03-03T09:16:40.204Z,23.10
2023-03-03T09:19:23.672Z,22.63
2023-03-03T09:21:54.787Z,23.47
2023-03-03T09:24:29.279Z,22.77
2023-03-03T09:26:59.670Z,23.07
2023-03-03T09:29:30.741Z,21.97
2023-03-03T09:32:02.315Z,23.63
2023-03-03T09:34:40.970Z,22.57
2023-03-03T09:37:22.642Z,22.97
2023-03-03T09:39:55.399Z,23.33
2023-03-03T09:42:47.114Z,23.33
2023-03-03T09:45:35.892Z,23.00
2023-03-03T09:48:35.144Z,23.67
2023-03-03T09:51:21.352Z,23.07
2023-03-03T09:54:01.695Z,22.50
2023-03-03T09:56:35.927Z,22.53
2023-03-03T09:59:19.219Z,22.37
2023-03-03T10:01:59.851Z,21.50
2023-03-03T10:04:54.082Z,22.07
2023-03-03T10:07:37.809Z,21.87
2023-03-03T10:10:25.413Z,21.33
2023-03-03T10:13:11.604Z,21.47
2023-03-03T10:15:50.698Z,20.47
2023-03-03T10:18:32.911Z,21.20
2023-03-03T10:21:09.933Z,20.47
2023-03-03T10:23:58.721Z,18.87
2023-03-03T10:26:57.553Z,18.33
2023-03-03T10:29:38.173Z,18.03
2023-03-03T10:32:31.478Z,17.93
2023-03-03T10:35:14.685Z,17.13
2023-03-03T10:37:52.358Z,16.43
2023-03-03T10:40:28.330Z,16.87
2023-03-03T10:43:31.903Z,17.60
2023-03-03T10:46:27.247Z,17.63
2023-03-03T10:49:13.560Z,15.93
2023-03-03T10:51:52.508Z,15.77
2023-03-03T10:54:47.643Z,15.97
2023-03-03T10:57:23.110Z,16.47
2023-03-03T11:00:20.761Z,16.30
2023-03-03T11:03:15.808Z,16.10
2023-03-03T11:05:49.415Z,16.07
2023-03-03T11:08:25.687Z,16.43
2023-03-03T11:11:06.964Z,15.77
2023-03-03T11:13:48.114Z,15.07
2023-03-03T11:16:29.273Z,14.57
2023-03-03T11:19:09.323Z,14.70
2023-03-03T11:21:48.025Z,14.43
2023-03-03T11:24:32.355Z,14.53
2023-03-03T11:27:12.692Z,15.13
2023-03-03T11:29:55.190Z,14.93
2023-03-03T11:32:35.304Z,13.80
2023-03-03T11:35:20.268Z,13.30
2023-03-03T11:37:58.793Z,12.97
2023-03-03T11:40:33.674Z,12.77
2023-03-03T11:43:09.062Z,12.47
2023-03-03T11:45:43.706Z,13.47
2023-03-03T11:48:19.578Z,12.97
2023-03-03T11:50:59.493Z,13.63
2023-03-03T11:53:40.102Z,19.70
2023-03-03T11:56:21.994Z,13.83
2023-03-03T11:59:02.005Z,12.90
2023-03-03T12:01:37.650Z,12.33
2023-03-03T12:04:13.215Z,12.03
2023-03-03T12:06:58.658Z,11.03
2023-03-03T12:09:40.744Z,11.50
2023-03-03T12:12:16.697Z,11.97
2023-03-03T12:15:10.404Z,11.80
2023-03-03T12:17:58.012Z,11.50
2023-03-03T12:20:34.432Z,11.37
2023-03-03T12:23:19.932Z,12.10
2023-03-03T12:25:55.942Z,11.40
2023-03-03T12:28:29.451Z,10.63
2023-03-03T12:31:20.069Z,10.57
2023-03-03T12:33:56.900Z,10.70
2023-03-03T12:36:51.919Z,9.90
2023-03-03T12:39:36.309Z,10.50
2023-03-03T12:42:15.373Z,10.53
2023-03-03T12:44:49.366Z,10.00
2023-03-03T12:47:26.690Z,10.10
2023-03-03T12:50:08.444Z,9.90
2023-03-03T12:52:47.789Z,10.10
2023-03-03T12:55:27.812Z,10.50
2023-03-03T12:58:05.094Z,9.90
2023-03-03T13:00:50.044Z,9.93
2023-03-03T13:03:53.279Z,10.90
2023-03-03T13:06:29.975Z,9.73
2023-03-03T13:09:09.078Z,11.37
2023-03-03T13:11:51.239Z,11.50
2023-03-03T13:14:30.012Z,11.23
2023-03-03T13:17:11.752Z,11.23
2023-03-03T13:20:14.339Z,10.97
2023-03-03T13:22:48.277Z,11.73
2023-03-03T13:25:36.793Z,12.93
2023-03-03T13:28:15.208Z,12.57
2023-03-03T13:30:49.675Z,12.90
2023-03-03T13:33:27.920Z,13.43
2023-03-03T13:36:01.166Z,14.10
2023-03-03T13:38:35.618Z,14.20
2023-03-03T13:41:16.149Z,13.30
2023-03-03T13:43:51.967Z,13.53
2023-03-03T13:46:32.613Z,14.33
2023-03-03T13:49:24.605Z,14.23
2023-03-03T13:52:03.413Z,14.67
2023-03-03T13:54:52.540Z,14.70
2023-03-03T13:57:35.424Z,15.00
2023-03-03T14:00:17.283Z,14.73
2023-03-03T14:03:18.044Z,15.60
2023-03-03T14:05:50.100Z,15.07
2023-03-03T14:08:37.280Z,16.13
2023-03-03T14:11:12.198Z,16.17
2023-03-03T14:13:58.455Z,14.97
2023-03-03T14:16:44.219Z,16.97
2023-03-03T14:19:18.327Z,16.60
2023-03-03T14:21:54.523Z,16.50
2023-03-03T14:24:26.468Z,16.90
2023-03-03T14:26:57.452Z,17.03
2023-03-03T14:29:33.330Z,16.77
2023-03-03T14:32:22.103Z,16.90
2023-03-03T14:35:00.433Z,16.93
2023-03-03T14:37:31.290Z,16.77
2023-03-03T14:40:21.398Z,17.63
2023-03-03T14:42:57.327Z,16.20
2023-03-03T14:45:53.195Z,16.77
2023-03-03T14:48:58.163Z,17.47
2023-03-03T14:51:43.869Z,16.97
2023-03-03T14:54:21.836Z,16.97
2023-03-03T14:57:04.336Z,17.30
2023-03-03T14:59:33.971Z,16.53
2023-03-03T15:02:31.402Z,16.37
2023-03-03T15:05:19.507Z,15.83
2023-03-03T15:07:53.233Z,15.97
2023-03-03T15:10:34.794Z,15.53
2023-03-03T15:13:24.136Z,15.00
2023-03-03T15:16:02.625Z,15.30
2023-03-03T15:18:34.296Z,15.90
2023-03-03T15:21:07.732Z,17.23
2023-03-03T15:23:50.914Z,15.33
2023-03-03T15:26:25.508Z,15.93
2023-03-03T15:29:03.307Z,17.10
2023-03-03T15:31:43.275Z,17.47
2023-03-03T15:34:27.545Z,17.70
2023-03-03T15:37:03.773Z,17.37
2023-03-03T15:39:39.952Z,18.23
2023-03-03T15:42:15.247Z,17.17
2023-03-03T15:44:56.138Z,17.20
2023-03-03T15:47:44.965Z,17.23
2023-03-03T15:50:30.864Z,16.20
2023-03-03T15:53:14.012Z,18.37
2023-03-03T15:55:54.330Z,17.67
2023-03-03T15:58:47.509Z,18.57
2023-03-03T16:01:24.726Z,18.90
2023-03-03T16:03:59.589Z,18.63
2023-03-03T16:06:48.212Z,20.13
2023-03-03T16:09:35.051Z,20.20
2023-03-03T16:12:13.517Z,20.07
2023-03-03T16:14:55.296Z,20.03
2023-03-03T16:17:29.990Z,19.43
2023-03-03T16:20:10.915Z,19.80
2023-03-03T16:22:57.003Z,20.03
2023-03-03T16:25:56.009Z,20.20
2023-03-03T16:28:31.763Z,19.60
2023-03-03T16:31:09.209Z,20.80
2023-03-03T16:33:44.099Z,20.30
2023-03-03T16:36:24.344Z,20.90
2023-03-03T16:39:00.924Z,21.20
2023-03-03T16:41:46.473Z,20.67
2023-03-03T16:44:39.061Z,20.83
2023-03-03T16:47:28.284Z,20.63
2023-03-03T16:50:11.436Z,21.77
2023-03-03T16:52:48.629Z,21.83
2023-03-03T16:55:22.970Z,20.53
2023-03-03T16:58:07.948Z,20.67
2023-03-03T17:00:41.371Z,20.60
2023-03-03T17:03:37.477Z,20.77
2023-03-03T17:06:14.676Z,19.30
2023-03-03T17:08:56.423Z,20.53
2023-03-03T17:11:35.041Z,19.77
2023-03-03T17:14:34.239Z,19.40
2023-03-03T17:17:12.157Z,20.53
2023-03-03T17:20:04.746Z,19.93
2023-03-03T17:22:47.188Z,21.00
2023-03-03T17:25:23.793Z,20.53
2023-03-03T17:28:06.515Z,20.50
2023-03-03T17:30:46.783Z,21.60
2023-03-03T17:33:52.655Z,20.47
2023-03-03T17:36:37.704Z,20.73
2023-03-03T17:39:39.198Z,20.77
2023-03-03T17:42:19.091Z,19.83
2023-03-03T17:44:59.114Z,20.23
2023-03-03T17:47:44.013Z,20.73
2023-03-03T17:50:26.928Z,20.40
2023-03-03T17:53:16.674Z,19.97
2023-03-03T17:56:02.881Z,19.27
2023-03-03T17:58:55.147Z,19.17
2023-03-03T18:01:39.321Z,19.30
2023-03-03T18:04:48.682Z,19.30
2023-03-03T18:07:43.959Z,19.23
2023-03-03T18:10:41.384Z,18.73
2023-03-03T18:13:28.596Z,19.57
2023-03-03T18:16:11.899Z,18.80
2023-03-03T18:18:56.345Z,19.10
2023-03-03T18:21:31.155Z,20.47
2023-03-03T18:24:27.920Z,18.90
2023-03-03T18:27:13.584Z,18.70
2023-03-03T18:30:32.857Z,19.53
2023-03-03T18:33:12.757Z,19.70
2023-03-03T18:35:44.034Z,18.30
2023-03-03T18:38:35.157Z,18.90
2023-03-03T18:41:06.202Z,19.17
2023-03-03T18:43:49.357Z,19.00
2023-03-03T18:46:47.505Z,18.57
2023-03-03T18:49:19.648Z,19.53
2023-03-03T18:52:18.699Z,19.97
2023-03-03T18:55:17.283Z,18.37
2023-03-03T18:58:27.692Z,18.17
2023-03-03T19:00:59.898Z,18.30
2023-03-03T19:03:33.668Z,18.10
2023-03-03T19:06:05.909Z,18.83
2023-03-03T19:08:51.251Z,18.40
2023-03-03T19:11:40.568Z,19.33
2023-03-03T19:14:32.003Z,19.37
2023-03-03T19:17:40.020Z,19.07
2023-03-03T19:20:15.119Z,18.43
2023-03-03T19:22:48.213Z,19.07
2023-03-03T19:25:25.140Z,36.10
2023-03-03T19:28:11.921Z,25.97
2023-03-03T19:30:46.554Z,21.10
2023-03-03T19:33:35.169Z,19.40
2023-03-03T19:36:19.206Z,18.73
2023-03-03T19:39:15.557Z,19.63
2023-03-03T19:41:56.369Z,17.80
2023-03-03T19:44:44.777Z,18.47
2023-03-03T19:47:24.812Z,18.23
2023-03-03T19:50:18.367Z,18.70
2023-03-03T19:52:55.514Z,18.63
2023-03-03T19:55:31.500Z,18.67
2023-03-03T19:58:11.890Z,19.10
2023-03-03T20:00:44.949Z,18.90
2023-03-03T20:03:35.020Z,19.10
2023-03-03T20:06:17.297Z,19.00
2023-03-03T20:08:53.150Z,19.30
2023-03-03T20:11:46.277Z,18.40
2023-03-03T20:14:36.602Z,18.53
2023-03-03T20:17:25.973Z,18.37
2023-03-03T20:20:02.765Z,18.40
2023-03-03T20:22:39.940Z,19.40
2023-03-03T20:25:20.230Z,20.27
2023-03-03T20:28:01.927Z,19.17
2023-03-03T20:30:55.858Z,18.90
2023-03-03T20:33:40.047Z,18.93
2023-03-03T20:36:18.136Z,19.03
2023-03-03T20:38:58.160Z,24.70
2023-03-03T20:41:38.519Z,22.10
2023-03-03T20:44:17.663Z,21.67
2023-03-03T20:46:57.989Z,21.93
2023-03-03T20:49:41.106Z,19.47
2023-03-03T20:52:18.854Z,19.13
2023-03-03T20:54:56.835Z,19.17
2023-03-03T20:57:34.114Z,19.90
2023-03-03T21:00:08.764Z,20.20
2023-03-03T21:02:45.613Z,20.23
2023-03-03T21:05:17.263Z,20.80
2023-03-03T21:07:54.789Z,21.83
2023-03-03T21:10:25.215Z,20.70
2023-03-03T21:12:55.667Z,20.90
2023-03-03T21:15:29.466Z,22.47
2023-03-03T21:17:59.512Z,20.77
2023-03-03T21:20:31.664Z,21.63
2023-03-03T21:23:02.374Z,21.07
2023-03-03T21:25:52.151Z,23.20
2023-03-03T21:28:24.680Z,22.43
2023-03-03T21:31:03.103Z,21.13
2023-03-03T21:33:43.740Z,19.90
2023-03-03T21:36:14.418Z,21.17
2023-03-03T21:38:45.156Z,22.13
2023-03-03T21:41:15.642Z,21.40
2023-03-03T21:43:46.167Z,22.60
2023-03-03T21:46:19.358Z,21.90
2023-03-03T21:48:48.722Z,20.43
2023-03-03T21:51:20.226Z,20.53
2023-03-03T21:53:49.167Z,19.17
2023-03-03T21:56:18.245Z,20.03
2023-03-03T21:58:47.330Z,19.97
2023-03-03T22:01:17.674Z,20.77
2023-03-03T22:03:47.611Z,20.20
2023-03-03T22:06:16.639Z,19.53
2023-03-03T22:08:45.862Z,20.60
2023-03-03T22:11:15.678Z,19.80
2023-03-03T22:13:44.768Z,21.70
2023-03-03T22:16:13.820Z,21.60
2023-03-03T22:18:44.222Z,21.30
2023-03-03T22:21:13.353Z,22.07
2023-03-03T22:23:43.135Z,20.83
2023-03-03T22:26:12.150Z,20.97
2023-03-03T22:28:44.180Z,21.40
2023-03-03T22:31:13.370Z,21.20
2023-03-03T22:33:42.327Z,21.07
2023-03-03T22:36:12.759Z,20.97
2023-03-03T22:38:41.605Z,20.90
2023-03-03T22:41:10.699Z,22.17
2023-03-03T22:43:39.740Z,20.87
2023-03-03T22:46:09.647Z,21.13
2023-03-03T22:48:39.760Z,20.67
2023-03-03T22:51:08.753Z,19.90
2023-03-03T22:53:39.421Z,19.93
2023-03-03T22:56:08.956Z,19.73
2023-03-03T22:58:38.153Z,20.03
2023-03-03T23:01:07.114Z,20.53
2023-03-03T23:03:37.252Z,20.20
2023-03-03T23:06:07.090Z,20.10
2023-03-03T23:08:36.123Z,19.63
2023-03-03T23:11:06.758Z,19.67
2023-03-03T23:13:36.350Z,20.67
2023-03-03T23:16:06.151Z,21.00
2023-03-03T23:18:35.159Z,21.33
2023-03-03T23:21:04.470Z,19.80
2023-03-03T23:23:33.744Z,19.90
2023-03-03T23:26:02.890Z,20.03
2023-03-03T23:28:33.318Z,20.00
2023-03-03T23:31:02.389Z,20.30
2023-03-03T23:33:31.561Z,20.20
2023-03-03T23:36:00.778Z,20.77
2023-03-03T23:38:30.210Z,20.57
2023-03-03T23:40:59.414Z,20.60
2023-03-03T23:43:28.379Z,19.87
2023-03-03T23:45:58.701Z,21.03
2023-03-03T23:48:28.264Z,20.73
2023-03-03T23:50:57.431Z,20.10
2023-03-03T23:53:26.449Z,20.83
2023-03-03T23:55:55.492Z,21.17
2023-03-03T23:58:24.610Z,19.90
